createdAt,value
2018-09-23T00:02:25.734Z,5.73
2018-09-23T00:04:53.874Z,6.17
2018-09-23T00:07:22.011Z,5.53
2018-09-23T00:09:50.142Z,6.53
2018-09-23T00:12:18.289Z,7.03
2018-09-23T00:14:46.423Z,5.60
2018-09-23T00:17:14.561Z,6.03
2018-09-23T00:19:42.698Z,6.17
2018-09-23T00:22:10.904Z,6.77
2018-09-23T00:24:38.999Z,6.40
2018-09-23T00:27:07.130Z,6.73
2018-09-23T00:29:40.473Z,7.00
2018-09-23T00:32:08.683Z,6.10
2018-09-23T00:34:36.793Z,6.20
2018-09-23T00:37:04.963Z,5.93
2018-09-23T00:39:33.134Z,6.40
2018-09-23T00:42:01.279Z,6.37
2018-09-23T00:44:29.402Z,5.63
2018-09-23T00:46:57.545Z,6.70
2018-09-23T00:49:25.697Z,6.80
2018-09-23T00:51:53.842Z,6.53
2018-09-23T00:54:21.969Z,6.30
2018-09-23T00:56:50.115Z,7.97
2018-09-23T00:59:18.247Z,6.50
2018-09-23T01:01:46.403Z,7.37
2018-09-23T01:04:14.542Z,7.70
2018-09-23T01:06:42.695Z,7.40
2018-09-23T01:09:11.066Z,7.13
2018-09-23T01:11:39.442Z,7.50
2018-09-23T01:14:07.606Z,7.60
2018-09-23T01:16:35.836Z,8.30
2018-09-23T01:19:04.007Z,7.40
2018-09-23T01:21:32.193Z,8.53
2018-09-23T01:24:00.349Z,8.67
2018-09-23T01:26:28.501Z,7.37
2018-09-23T01:28:56.642Z,8.00
2018-09-23T01:31:24.799Z,8.60
2018-09-23T01:33:52.943Z,7.97
2018-09-23T01:36:21.075Z,8.40
2018-09-23T01:38:49.218Z,7.87
2018-09-23T01:41:17.363Z,7.87
2018-09-23T01:43:45.567Z,7.53
2018-09-23T01:46:14.026Z,8.07
2018-09-23T01:48:42.169Z,7.87
2018-09-23T01:51:10.428Z,8.03
2018-09-23T01:53:38.555Z,8.60
2018-09-23T01:56:06.687Z,8.20
2018-09-23T01:58:34.908Z,8.20
2018-09-23T02:01:03.058Z,8.67
2018-09-23T02:03:31.202Z,7.73
2018-09-23T02:05:59.355Z,8.33
2018-09-23T02:08:27.507Z,8.53
2018-09-23T02:10:55.653Z,8.40
2018-09-23T02:13:23.825Z,8.50
2018-09-23T02:15:51.955Z,9.00
2018-09-23T02:18:20.103Z,8.40
2018-09-23T02:20:48.245Z,8.77
2018-09-23T02:23:16.414Z,8.80
2018-09-23T02:25:44.558Z,9.50
2018-09-23T02:28:12.709Z,9.30
2018-09-23T02:30:40.936Z,8.90
2018-09-23T02:33:09.114Z,6.33
2018-09-23T02:35:37.281Z,9.83
2018-09-23T02:38:05.448Z,6.63
2018-09-23T02:40:33.678Z,7.97
2018-09-23T02:43:01.818Z,9.40
2018-09-23T02:45:30.022Z,9.57
2018-09-23T02:47:58.178Z,10.10
2018-09-23T02:50:26.391Z,9.20
2018-09-23T02:52:54.567Z,8.93
2018-09-23T02:55:22.711Z,8.70
2018-09-23T02:57:50.865Z,9.70
2018-09-23T03:00:19.011Z,10.07
2018-09-23T03:02:47.162Z,10.47
2018-09-23T03:05:15.316Z,9.53
2018-09-23T03:07:43.462Z,10.17
2018-09-23T03:10:11.613Z,9.00
2018-09-23T03:12:39.765Z,9.70
2018-09-23T03:15:07.900Z,8.13
2018-09-23T03:17:36.053Z,9.47
2018-09-23T03:20:04.316Z,9.30
2018-09-23T03:22:32.460Z,8.97
2018-09-23T03:25:00.594Z,8.23
2018-09-23T03:27:28.746Z,8.20
2018-09-23T03:29:56.921Z,7.77
2018-09-23T03:32:25.182Z,9.87
2018-09-23T03:34:53.334Z,7.60
2018-09-23T03:37:21.499Z,7.17
2018-09-23T03:39:49.634Z,6.33
2018-09-23T03:42:17.770Z,9.50
2018-09-23T03:44:45.910Z,9.80
2018-09-23T03:47:14.050Z,8.30
2018-09-23T03:49:42.199Z,8.27
2018-09-23T03:52:10.338Z,10.50
2018-09-23T03:54:38.534Z,7.67
2018-09-23T03:57:06.695Z,11.13
2018-09-23T03:59:34.858Z,11.40
2018-09-23T04:02:02.998Z,11.70
2018-09-23T04:04:31.181Z,10.63
2018-09-23T04:06:59.316Z,9.37
2018-09-23T04:09:27.459Z,12.40
2018-09-23T04:11:55.683Z,12.17
2018-09-23T04:14:23.742Z,11.63
2018-09-23T04:16:51.887Z,12.90
2018-09-23T04:19:20.051Z,12.17
2018-09-23T04:21:48.200Z,12.60
2018-09-23T04:24:16.365Z,11.60
2018-09-23T04:26:44.499Z,12.40
2018-09-23T04:29:12.652Z,12.10
2018-09-23T04:31:40.813Z,13.20
2018-09-23T04:34:08.954Z,13.43
2018-09-23T04:36:37.098Z,11.40
2018-09-23T04:39:07.677Z,13.50
2018-09-23T04:41:35.816Z,13.40
2018-09-23T04:44:04.075Z,10.30
2018-09-23T04:46:32.239Z,12.80
2018-09-23T04:49:00.400Z,11.70
2018-09-23T04:51:28.554Z,10.30
2018-09-23T04:53:56.718Z,15.27
2018-09-23T04:56:24.886Z,14.30
2018-09-23T04:58:53.050Z,13.43
2018-09-23T05:01:21.201Z,15.80
2018-09-23T05:03:49.414Z,12.80
2018-09-23T05:06:17.574Z,16.40
2018-09-23T05:08:45.755Z,16.03
2018-09-23T05:11:13.893Z,15.07
2018-09-23T05:13:42.202Z,15.10
2018-09-23T05:16:10.513Z,13.60
2018-09-23T05:18:38.762Z,14.43
2018-09-23T05:21:06.922Z,16.10
2018-09-23T05:23:35.074Z,14.73
2018-09-23T05:26:03.227Z,14.30
2018-09-23T05:28:31.515Z,15.50
2018-09-23T05:30:59.693Z,13.97
2018-09-23T05:33:27.818Z,14.10
2018-09-23T05:35:55.986Z,14.67
2018-09-23T05:38:24.138Z,12.63
2018-09-23T05:40:52.265Z,15.30
2018-09-23T05:43:20.423Z,13.33
2018-09-23T05:45:48.606Z,9.00
2018-09-23T05:48:16.774Z,13.33
2018-09-23T05:50:44.960Z,10.37
2018-09-23T05:53:13.358Z,16.03
2018-09-23T05:55:41.415Z,11.03
2018-09-23T05:58:09.569Z,16.10
2018-09-23T06:00:41.254Z,17.90
2018-09-23T06:03:09.572Z,17.13
2018-09-23T06:05:37.726Z,16.00
2018-09-23T06:08:05.867Z,16.30
2018-09-23T06:10:34.034Z,18.10
2018-09-23T06:13:02.196Z,16.73
2018-09-23T06:15:30.324Z,17.77
2018-09-23T06:17:58.454Z,17.77
2018-09-23T06:20:26.614Z,18.00
2018-09-23T06:22:54.792Z,16.57
2018-09-23T06:25:22.993Z,18.83
2018-09-23T06:27:51.058Z,18.03
2018-09-23T06:30:19.203Z,19.90
2018-09-23T06:32:47.350Z,17.70
2018-09-23T06:35:15.497Z,20.10
2018-09-23T06:37:43.646Z,19.73
2018-09-23T06:40:11.848Z,21.50
2018-09-23T06:42:39.988Z,16.70
2018-09-23T06:45:08.139Z,20.80
2018-09-23T06:47:36.277Z,17.93
2018-09-23T06:50:04.443Z,18.80
2018-09-23T06:52:32.591Z,21.00
2018-09-23T06:55:00.738Z,20.53
2018-09-23T06:57:28.892Z,17.97
2018-09-23T06:59:57.150Z,19.07
2018-09-23T07:02:25.315Z,20.17
2018-09-23T07:04:53.502Z,20.20
2018-09-23T07:07:21.598Z,21.43
2018-09-23T07:09:49.830Z,20.60
2018-09-23T07:12:17.995Z,20.33
2018-09-23T07:14:46.145Z,16.57
2018-09-23T07:17:14.291Z,19.37
2018-09-23T07:19:42.443Z,17.97
2018-09-23T07:22:10.577Z,17.30
2018-09-23T07:24:38.741Z,16.87
2018-09-23T07:27:07.162Z,17.23
2018-09-23T07:29:35.327Z,18.73
2018-09-23T07:32:03.478Z,18.33
2018-09-23T07:34:31.636Z,16.40
2018-09-23T07:36:59.861Z,17.03
2018-09-23T07:39:27.990Z,16.90
2018-09-23T07:41:56.079Z,17.50
2018-09-23T07:44:24.235Z,17.80
2018-09-23T07:46:52.396Z,15.60
2018-09-23T07:49:20.554Z,14.20
2018-09-23T07:51:48.685Z,14.63
2018-09-23T07:54:16.842Z,14.47
2018-09-23T07:56:44.979Z,15.60
2018-09-23T07:59:13.129Z,13.37
2018-09-23T08:01:41.390Z,12.53
2018-09-23T08:04:09.554Z,12.60
2018-09-23T08:06:37.712Z,12.53
2018-09-23T08:09:06.873Z,11.93
2018-09-23T08:11:35.007Z,10.17
2018-09-23T08:14:03.465Z,9.50
2018-09-23T08:16:31.323Z,9.90
2018-09-23T08:18:59.555Z,9.70
2018-09-23T08:21:27.677Z,9.50
2018-09-23T08:23:55.832Z,8.10
2018-09-23T08:26:24.028Z,7.27
2018-09-23T08:28:52.164Z,9.57
2018-09-23T08:31:20.286Z,9.03
2018-09-23T08:33:48.430Z,8.40
2018-09-23T08:36:16.571Z,9.10
2018-09-23T08:38:44.717Z,8.60
2018-09-23T08:41:13.350Z,8.57
2018-09-23T08:43:41.499Z,9.30
2018-09-23T08:46:09.630Z,7.67
2018-09-23T08:48:37.779Z,9.30
2018-09-23T08:51:05.902Z,8.53
2018-09-23T08:53:34.422Z,8.93
2018-09-23T08:56:02.690Z,7.40
2018-09-23T08:58:30.831Z,9.73
2018-09-23T09:00:58.980Z,8.63
2018-09-23T09:03:27.165Z,6.77
2018-09-23T09:05:55.291Z,8.00
2018-09-23T09:08:23.416Z,6.57
2018-09-23T09:10:51.555Z,8.57
2018-09-23T09:13:19.690Z,8.90
2018-09-23T09:15:47.838Z,8.20
2018-09-23T09:18:16.014Z,9.10
2018-09-23T09:20:44.129Z,8.90
2018-09-23T09:23:12.262Z,7.83
2018-09-23T09:25:40.394Z,7.40
2018-09-23T09:28:08.547Z,8.90
2018-09-23T09:30:36.687Z,8.77
2018-09-23T09:33:04.875Z,9.00
2018-09-23T09:35:33.027Z,5.90
2018-09-23T09:38:01.155Z,5.73
2018-09-23T09:40:29.298Z,5.50
2018-09-23T09:42:57.430Z,7.03
2018-09-23T09:45:25.591Z,5.80
2018-09-23T09:47:53.726Z,5.40
2018-09-23T09:50:21.865Z,6.30
2018-09-23T09:52:50.006Z,6.90
2018-09-23T09:55:18.177Z,6.20
2018-09-23T09:57:46.267Z,6.70
2018-09-23T10:00:17.670Z,5.10
2018-09-23T10:02:45.797Z,7.43
2018-09-23T10:05:13.938Z,8.00
2018-09-23T10:07:42.075Z,6.60
2018-09-23T10:10:10.223Z,7.73
2018-09-23T10:12:38.350Z,5.77
2018-09-23T10:15:06.564Z,5.53
2018-09-23T10:17:34.695Z,4.80
2018-09-23T10:20:02.843Z,4.97
2018-09-23T10:22:30.984Z,4.10
2018-09-23T10:24:59.106Z,5.93
2018-09-23T10:27:27.239Z,3.73
2018-09-23T10:29:55.418Z,5.90
2018-09-23T10:32:23.523Z,4.60
2018-09-23T10:34:51.748Z,3.90
2018-09-23T10:37:19.882Z,5.60
2018-09-23T10:39:48.007Z,6.23
2018-09-23T10:42:16.141Z,5.73
2018-09-23T10:44:44.290Z,4.67
2018-09-23T10:47:12.642Z,5.93
2018-09-23T10:49:41.115Z,5.30
2018-09-23T10:52:09.246Z,6.43
2018-09-23T10:54:37.380Z,5.80
2018-09-23T10:57:05.547Z,5.87
2018-09-23T10:59:34.383Z,4.60
2018-09-23T11:02:02.465Z,4.63
2018-09-23T11:04:30.600Z,4.30
2018-09-23T11:06:58.729Z,5.00
2018-09-23T11:09:26.870Z,4.10
2018-09-23T11:11:54.999Z,5.40
2018-09-23T11:14:23.139Z,4.70
2018-09-23T11:16:51.279Z,7.63
2018-09-23T11:19:19.429Z,7.37
2018-09-23T11:21:47.675Z,6.50
2018-09-23T11:24:15.834Z,6.53
2018-09-23T11:26:43.995Z,4.63
2018-09-23T11:29:12.115Z,4.40
2018-09-23T11:31:40.278Z,6.53
2018-09-23T11:34:08.410Z,6.53
2018-09-23T11:36:36.538Z,5.53
2018-09-23T11:39:08.319Z,8.67
2018-09-23T11:41:36.458Z,6.53
2018-09-23T11:44:04.603Z,8.73
2018-09-23T11:46:32.738Z,7.30
2018-09-23T11:49:00.871Z,6.40
2018-09-23T11:51:29.019Z,9.70
2018-09-23T11:53:57.319Z,8.10
2018-09-23T11:56:25.458Z,10.30
2018-09-23T11:58:53.671Z,7.07
2018-09-23T12:01:21.734Z,6.20
2018-09-23T12:03:49.868Z,8.77
2018-09-23T12:06:18.019Z,8.50
2018-09-23T12:08:46.169Z,5.47
2018-09-23T12:11:14.307Z,8.33
2018-09-23T12:13:42.478Z,8.53
2018-09-23T12:16:10.618Z,7.93
2018-09-23T12:18:38.802Z,8.60
2018-09-23T12:21:07.066Z,6.53
2018-09-23T12:23:35.293Z,7.77
2018-09-23T12:26:03.434Z,6.20
2018-09-23T12:28:31.572Z,8.80
2018-09-23T12:30:59.714Z,7.20
2018-09-23T12:33:27.865Z,10.43
2018-09-23T12:36:00.250Z,7.80
2018-09-23T12:38:28.489Z,8.80
2018-09-23T12:40:56.736Z,8.30
2018-09-23T12:43:24.878Z,7.93
2018-09-23T12:45:53.037Z,7.60
2018-09-23T12:48:21.194Z,7.57
2018-09-23T12:50:49.323Z,6.30
2018-09-23T12:53:17.588Z,7.43
2018-09-23T12:55:45.734Z,7.53
2018-09-23T12:58:13.870Z,6.43
2018-09-23T13:00:41.994Z,6.30
2018-09-23T13:03:10.126Z,6.10
2018-09-23T13:05:38.246Z,6.60
2018-09-23T13:08:06.460Z,6.00
2018-09-23T13:10:34.617Z,5.40
2018-09-23T13:13:02.759Z,6.37
2018-09-23T13:15:30.910Z,6.87
2018-09-23T13:17:59.071Z,6.03
2018-09-23T13:20:27.193Z,5.80
2018-09-23T13:22:55.345Z,6.33
2018-09-23T13:25:23.463Z,7.70
2018-09-23T13:27:51.611Z,5.50
2018-09-23T13:30:19.935Z,5.47
2018-09-23T13:32:48.091Z,5.93
2018-09-23T13:35:16.243Z,6.27
2018-09-23T13:37:44.395Z,6.43
2018-09-23T13:40:12.522Z,6.50
2018-09-23T13:42:40.936Z,4.87
2018-09-23T13:45:09.078Z,6.20
2018-09-23T13:47:37.249Z,5.73
2018-09-23T13:50:06.246Z,5.93
2018-09-23T13:52:34.713Z,5.90
2018-09-23T13:55:02.830Z,5.57
2018-09-23T13:57:31.003Z,7.50
2018-09-23T13:59:59.168Z,4.63
2018-09-23T14:02:27.351Z,5.63
2018-09-23T14:04:55.552Z,6.20
2018-09-23T14:07:23.698Z,6.77
2018-09-23T14:09:51.851Z,5.30
2018-09-23T14:12:19.990Z,6.63
2018-09-23T14:14:48.127Z,6.13
2018-09-23T14:17:16.278Z,6.83
2018-09-23T14:19:44.422Z,6.90
2018-09-23T14:22:12.565Z,6.60
2018-09-23T14:24:40.739Z,5.73
2018-09-23T14:27:08.906Z,7.20
2018-09-23T14:29:37.070Z,6.20
2018-09-23T14:32:05.278Z,6.60
2018-09-23T14:34:33.519Z,5.30
2018-09-23T14:37:01.649Z,5.67
2018-09-23T14:39:29.775Z,6.53
2018-09-23T14:41:58.002Z,7.20
2018-09-23T14:44:26.087Z,6.80
2018-09-23T14:46:54.254Z,7.10
2018-09-23T14:49:22.485Z,6.70
2018-09-23T14:51:50.650Z,5.90
2018-09-23T14:54:18.902Z,5.23
2018-09-23T14:56:47.054Z,4.90
2018-09-23T14:59:15.199Z,5.60
2018-09-23T15:01:43.430Z,6.40
2018-09-23T15:04:11.756Z,6.00
2018-09-23T15:06:39.871Z,6.13
2018-09-23T15:09:09.423Z,6.17
2018-09-23T15:11:37.587Z,5.70
2018-09-23T15:14:05.766Z,4.57
2018-09-23T15:16:33.866Z,5.40
2018-09-23T15:19:02.012Z,4.40
2018-09-23T15:21:30.155Z,4.57
2018-09-23T15:23:58.307Z,4.70
2018-09-23T15:26:26.453Z,5.30
2018-09-23T15:28:54.583Z,4.57
2018-09-23T15:31:22.731Z,3.40
2018-09-23T15:33:50.873Z,3.63
2018-09-23T15:36:19.029Z,3.67
2018-09-23T15:38:47.179Z,3.00
2018-09-23T15:41:15.530Z,3.27
2018-09-23T15:43:43.675Z,2.63
2018-09-23T15:46:11.995Z,2.97
2018-09-23T15:48:40.145Z,3.00
2018-09-23T15:51:08.273Z,2.60
2018-09-23T15:53:36.467Z,3.37
2018-09-23T15:56:04.608Z,3.97
2018-09-23T15:58:32.737Z,3.53
2018-09-23T16:01:00.908Z,3.40
2018-09-23T16:03:29.046Z,3.23
2018-09-23T16:05:57.175Z,2.73
2018-09-23T16:08:25.295Z,2.90
2018-09-23T16:10:53.458Z,3.17
2018-09-23T16:13:21.618Z,2.97
2018-09-23T16:15:49.830Z,3.40
2018-09-23T16:18:17.999Z,3.13
2018-09-23T16:20:46.090Z,3.33
2018-09-23T16:23:14.229Z,3.60
2018-09-23T16:25:42.370Z,3.10
2018-09-23T16:28:10.495Z,4.40
2018-09-23T16:30:38.626Z,3.63
2018-09-23T16:33:06.763Z,3.73
2018-09-23T16:35:34.893Z,3.90
2018-09-23T16:38:03.014Z,4.07
2018-09-23T16:40:31.174Z,4.37
2018-09-23T16:42:59.312Z,5.00
2018-09-23T16:45:27.442Z,4.00
2018-09-23T16:47:55.629Z,4.40
2018-09-23T16:50:23.786Z,4.03
2018-09-23T16:52:52.146Z,4.20
2018-09-23T16:55:20.274Z,5.40
2018-09-23T16:57:48.402Z,5.00
2018-09-23T17:00:16.574Z,4.70
2018-09-23T17:02:44.726Z,4.80
2018-09-23T17:05:12.878Z,5.07
2018-09-23T17:07:41.870Z,6.00
2018-09-23T17:10:10.011Z,5.77
2018-09-23T17:12:38.154Z,6.00
2018-09-23T17:15:06.282Z,5.27
2018-09-23T17:17:34.421Z,5.00
2018-09-23T17:20:02.583Z,5.20
2018-09-23T17:22:30.750Z,4.93
2018-09-23T17:24:58.908Z,5.20
2018-09-23T17:27:27.070Z,5.40
2018-09-23T17:29:55.199Z,5.10
2018-09-23T17:32:23.402Z,5.80
2018-09-23T17:34:51.583Z,6.40
2018-09-23T17:37:19.743Z,6.77
2018-09-23T17:39:47.942Z,7.47
2018-09-23T17:42:16.122Z,7.10
2018-09-23T17:44:44.255Z,6.00
2018-09-23T17:47:12.408Z,5.73
2018-09-23T17:49:40.538Z,5.27
2018-09-23T17:52:08.715Z,3.80
2018-09-23T17:54:36.868Z,4.47
2018-09-23T17:57:05.031Z,4.87
2018-09-23T17:59:33.191Z,3.67
2018-09-23T18:02:01.453Z,3.87
2018-09-23T18:04:29.726Z,3.80
2018-09-23T18:06:57.904Z,3.20
2018-09-23T18:09:26.120Z,3.40
2018-09-23T18:11:54.272Z,3.30
2018-09-23T18:14:22.442Z,4.33
2018-09-23T18:16:50.597Z,3.73
2018-09-23T18:19:19.079Z,4.00
2018-09-23T18:21:47.252Z,4.10
2018-09-23T18:24:15.387Z,3.87
2018-09-23T18:26:44.067Z,3.50
2018-09-23T18:29:12.209Z,3.67
2018-09-23T18:31:40.359Z,3.47
2018-09-23T18:34:08.519Z,3.93
2018-09-23T18:36:36.705Z,3.20
2018-09-23T18:39:07.698Z,3.90
2018-09-23T18:41:35.899Z,3.27
2018-09-23T18:44:04.045Z,3.80
2018-09-23T18:46:32.219Z,4.50
2018-09-23T18:49:00.390Z,3.50
2018-09-23T18:51:28.558Z,3.70
2018-09-23T18:54:02.111Z,3.10
2018-09-23T18:56:30.233Z,3.00
2018-09-23T18:58:58.390Z,3.77
2018-09-23T19:01:26.591Z,2.80
2018-09-23T19:03:54.682Z,3.30
2018-09-23T19:06:22.818Z,2.93
2018-09-23T19:08:50.954Z,3.30
2018-09-23T19:11:19.151Z,3.10
2018-09-23T19:13:51.423Z,3.17
2018-09-23T19:16:25.028Z,3.00
2018-09-23T19:18:53.787Z,3.00
2018-09-23T19:21:21.992Z,3.20
2018-09-23T19:23:50.133Z,2.53
2018-09-23T19:26:18.281Z,3.10
2018-09-23T19:28:46.415Z,3.20
2018-09-23T19:31:14.574Z,2.40
2018-09-23T19:33:42.715Z,3.00
2018-09-23T19:36:10.845Z,2.93
2018-09-23T19:38:39.033Z,2.20
2018-09-23T19:41:07.508Z,2.60
2018-09-23T19:43:35.787Z,2.93
2018-09-23T19:46:04.466Z,2.53
2018-09-23T19:48:32.896Z,2.90
2018-09-23T19:51:01.020Z,2.67
2018-09-23T19:53:29.158Z,2.70
2018-09-23T19:55:57.314Z,2.77
2018-09-23T19:58:25.530Z,2.57
2018-09-23T20:00:53.715Z,2.00
2018-09-23T20:03:21.945Z,2.50
2018-09-23T20:05:50.089Z,3.20
2018-09-23T20:08:18.391Z,3.70
2018-09-23T20:10:46.526Z,3.10
2018-09-23T20:13:14.670Z,3.00
2018-09-23T20:15:42.841Z,2.60
2018-09-23T20:18:11.023Z,2.43
2018-09-23T20:20:39.155Z,2.43
2018-09-23T20:23:07.338Z,2.70
2018-09-23T20:25:35.550Z,2.73
2018-09-23T20:28:03.671Z,2.60
2018-09-23T20:30:31.958Z,2.43
2018-09-23T20:33:00.174Z,2.40
2018-09-23T20:35:28.346Z,2.70
2018-09-23T20:37:56.487Z,2.07
2018-09-23T20:40:24.674Z,2.47
2018-09-23T20:42:52.807Z,1.90
2018-09-23T20:45:20.963Z,2.80
2018-09-23T20:47:49.102Z,2.30
2018-09-23T20:50:17.262Z,2.27
2018-09-23T20:52:45.417Z,2.33
2018-09-23T20:55:13.781Z,2.40
2018-09-23T20:57:41.864Z,2.37
2018-09-23T21:00:10.011Z,1.90
2018-09-23T21:02:38.166Z,2.17
2018-09-23T21:05:06.818Z,2.53
2018-09-23T21:07:34.962Z,2.23
2018-09-23T21:10:03.164Z,2.30
2018-09-23T21:12:31.254Z,2.30
2018-09-23T21:14:59.396Z,2.00
2018-09-23T21:17:27.543Z,2.30
2018-09-23T21:19:55.690Z,2.23
2018-09-23T21:22:23.827Z,2.17
2018-09-23T21:24:51.987Z,2.27
2018-09-23T21:27:20.118Z,2.50
2018-09-23T21:29:48.263Z,2.33
2018-09-23T21:32:16.398Z,1.80
2018-09-23T21:34:44.579Z,2.50
2018-09-23T21:37:12.718Z,3.17
2018-09-23T21:39:40.851Z,3.33
2018-09-23T21:42:08.990Z,3.90
2018-09-23T21:44:37.121Z,2.90
2018-09-23T21:47:05.254Z,2.53
2018-09-23T21:49:33.386Z,2.60
2018-09-23T21:52:01.510Z,2.37
2018-09-23T21:54:29.642Z,2.30
2018-09-23T21:56:57.769Z,2.17
2018-09-23T21:59:25.906Z,2.30
2018-09-23T22:01:54.027Z,2.20
2018-09-23T22:04:22.166Z,2.67
2018-09-23T22:06:50.306Z,2.70
2018-09-23T22:09:18.438Z,2.13
2018-09-23T22:11:46.570Z,2.50
2018-09-23T22:14:14.718Z,2.40
2018-09-23T22:16:42.861Z,2.20
2018-09-23T22:19:10.999Z,2.53
2018-09-23T22:21:39.157Z,2.20
2018-09-23T22:24:07.274Z,2.67
2018-09-23T22:26:35.418Z,2.80
2018-09-23T22:29:03.551Z,2.30
2018-09-23T22:31:31.706Z,2.57
2018-09-23T22:33:59.857Z,2.93
2018-09-23T22:36:27.981Z,2.70
2018-09-23T22:38:56.110Z,2.27
2018-09-23T22:41:24.252Z,2.70
2018-09-23T22:43:52.370Z,2.83
2018-09-23T22:46:20.529Z,2.97
2018-09-23T22:48:48.663Z,2.73
2018-09-23T22:51:16.807Z,3.10
2018-09-23T22:53:44.939Z,3.00
2018-09-23T22:56:13.074Z,2.80
2018-09-23T22:58:41.200Z,2.90
2018-09-23T23:01:09.407Z,3.20
2018-09-23T23:03:37.533Z,3.10
2018-09-23T23:06:05.703Z,2.80
2018-09-23T23:08:33.826Z,2.60
2018-09-23T23:11:01.967Z,2.60
2018-09-23T23:13:30.094Z,2.80
2018-09-23T23:15:58.322Z,2.90
2018-09-23T23:18:26.453Z,2.67
2018-09-23T23:20:54.603Z,2.80
2018-09-23T23:23:22.732Z,2.87
2018-09-23T23:25:50.914Z,2.30
2018-09-23T23:28:19.033Z,2.20
2018-09-23T23:30:47.170Z,2.47
2018-09-23T23:33:15.340Z,2.40
2018-09-23T23:35:43.478Z,2.70
2018-09-23T23:38:11.611Z,2.47
2018-09-23T23:40:39.730Z,2.30
2018-09-23T23:43:07.874Z,2.20
2018-09-23T23:45:36.090Z,1.90
2018-09-23T23:48:04.214Z,2.60
2018-09-23T23:50:32.345Z,1.77
2018-09-23T23:53:00.475Z,2.03
2018-09-23T23:55:28.603Z,2.37
2018-09-23T23:57:56.743Z,2.00
